Time,TemperatureF,DewpointF,PressureIn,WindDirection,WindDirectionDegrees,WindSpeedMPH,WindSpeedGustMPH,Humidity,HourlyPrecipIn,Conditions,Clouds,dailyrainin,SolarRadiationWatts/m^2,SoftwareType,DateUTC
2013-01-28 00:03:00,21.2,7.5,30.30,SE,135,5.9,5.9,55,0.00,OVC,,0.00,0.0,WeatherDisplay:10.37,2013-01-28 05:03:00,
2013-01-28 00:04:00,21.2,7.5,30.30,SE,135,4.7,4.7,55,0.00,OVC,,0.00,0.0,WeatherDisplay:10.37,2013-01-28 05:04:00,
2013-01-28 00:09:00,21.4,7.7,30.30,SE,135,4.6,4.6,55,0.00,OVC,,0.00,0.0,WeatherDisplay:10.37,2013-01-28 05:09:00,
2013-01-28 00:14:00,21.4,7.7,30.30,SE,135,4.6,4.6,55,0.00,OVC,,0.00,0.0,WeatherDisplay:10.37,2013-01-28 05:14:00,
2013-01-28 00:19:00,21.4,7.7,30.30,SE,135,5.8,5.8,55,0.00,OVC,,0.00,0.0,WeatherDisplay:10.37,2013-01-28 05:19:00,
2013-01-28 00:24:00,21.4,7.7,30.30,SE,135,4.6,4.6,55,0.00,OVC,,0.00,0.0,WeatherDisplay:10.37,2013-01-28 05:24:00,
2013-01-28 00:29:00,21.6,7.9,30.30,SE,135,5.8,5.8,55,0.00,OVC,,0.00,0.0,WeatherDisplay:10.37,2013-01-28 05:29:00,
2013-01-28 00:34:00,21.6,7.9,30.30,SE,135,4.9,4.9,55,0.00,OVC,,0.00,0.0,WeatherDisplay:10.37,2013-01-28 05:34:00,
2013-01-28 00:39:00,21.9,8.2,30.30,SE,135,5.8,5.8,55,0.00,OVC,,0.00,0.0,WeatherDisplay:10.37,2013-01-28 05:39:00,
2013-01-28 00:44:00,21.9,8.2,30.30,SE,135,3.5,3.5,55,0.00,OVC,,0.00,0.0,WeatherDisplay:10.37,2013-01-28 05:44:00,
2013-01-28 00:49:00,21.9,8.2,30.30,SE,135,4.6,4.6,55,0.00,OVC,,0.00,0.0,WeatherDisplay:10.37,2013-01-28 05:49:00,
2013-01-28 00:54:00,22.1,8.4,30.30,SSE,158,5.8,5.8,55,0.00,OVC,,0.00,0.0,WeatherDisplay:10.37,2013-01-28 05:54:00,
2013-01-28 00:59:00,22.3,8.5,30.27,SE,135,5.8,5.8,55,0.00,OVC,,0.00,0.0,WeatherDisplay:10.37,2013-01-28 05:59:00,
2013-01-28 01:04:00,22.5,7.5,30.27,SSE,158,2.3,3.3,52,0.00,OVC,,0.00,0.0,WeatherDisplay:10.37,2013-01-28 06:04:00,
2013-01-28 01:09:00,22.5,7.5,30.27,ESE,112,6.9,6.9,52,0.00,OVC,,0.00,0.0,WeatherDisplay:10.37,2013-01-28 06:09:00,
2013-01-28 01:14:00,22.6,8.9,30.27,SSE,158,5.8,5.8,55,0.00,OVC,,0.00,0.0,WeatherDisplay:10.37,2013-01-28 06:14:00,
2013-01-28 01:19:00,22.8,7.8,30.27,SSE,158,3.5,3.5,52,0.00,OVC,,0.00,0.0,WeatherDisplay:10.37,2013-01-28 06:19:00,
2013-01-28 01:24:00,23.0,8.0,30.27,SE,135,3.5,3.5,52,0.00,OVC,,0.00,0.0,WeatherDisplay:10.37,2013-01-28 06:24:00,
2013-01-28 01:29:00,23.0,8.0,30.24,SE,135,3.8,3.8,52,0.00,OVC,,0.00,0.0,WeatherDisplay:10.37,2013-01-28 06:29:00,
2013-01-28 01:34:00,23.2,8.1,30.24,SE,135,5.8,5.8,52,0.00,OVC,,0.00,0.0,WeatherDisplay:10.37,2013-01-28 06:34:00,
2013-01-28 01:39:00,23.4,8.3,30.24,SE,135,5.8,5.8,52,0.00,OVC,,0.00,0.0,WeatherDisplay:10.37,2013-01-28 06:39:00,
2013-01-28 01:44:00,23.5,8.5,30.24,SE,135,5.8,5.8,52,0.00,OVC,,0.00,0.0,WeatherDisplay:10.37,2013-01-28 06:44:00,
2013-01-28 01:49:00,23.5,8.5,30.24,SE,135,4.6,4.6,52,0.00,OVC,,0.00,0.0,WeatherDisplay:10.37,2013-01-28 06:49:00,
2013-01-28 01:54:00,23.5,8.5,30.24,SSE,158,5.6,5.6,52,0.00,OVC,,0.00,0.0,WeatherDisplay:10.37,2013-01-28 06:54:00,
2013-01-28 01:59:00,23.7,8.6,30.24,SE,135,4.6,4.6,52,0.00,OVC,,0.00,0.0,WeatherDisplay:10.37,2013-01-28 06:59:00,
2013-01-28 02:04:00,23.7,8.6,30.24,ESE,112,5.8,5.8,52,0.00,OVC,,0.00,0.0,WeatherDisplay:10.37,2013-01-28 07:04:00,
2013-01-28 02:09:00,23.9,8.8,30.24,ESE,112,6.0,6.0,52,0.00,OVC,,0.00,0.0,WeatherDisplay:10.37,2013-01-28 07:09:00,
2013-01-28 02:14:00,23.9,8.8,30.21,SSE,158,5.8,5.8,52,0.00,OVC,,0.00,0.0,WeatherDisplay:10.37,2013-01-28 07:14:00,
2013-01-28 02:19:00,24.1,9.0,30.21,SE,135,6.0,6.0,52,0.00,OVC,,0.00,0.0,WeatherDisplay:10.37,2013-01-28 07:19:00,
2013-01-28 02:24:00,24.1,9.0,30.21,SSE,158,4.6,4.6,52,0.00,OVC,,0.00,0.0,WeatherDisplay:10.37,2013-01-28 07:24:00,
2013-01-28 02:29:00,24.1,9.0,30.24,ENE,68,6.2,6.2,52,0.00,OVC,,0.00,0.0,WeatherDisplay:10.37,2013-01-28 07:29:00,
2013-01-28 02:34:00,24.3,9.1,30.24,SE,135,6.9,6.9,52,0.00,OVC,,0.00,0.0,WeatherDisplay:10.37,2013-01-28 07:34:00,
2013-01-28 02:39:00,24.3,9.1,30.24,SE,135,5.8,5.8,52,0.00,OVC,,0.00,0.0,WeatherDisplay:10.37,2013-01-28 07:39:00,
2013-01-28 02:44:00,24.3,9.1,30.24,SSE,158,4.6,4.6,52,0.00,OVC,,0.00,0.0,WeatherDisplay:10.37,2013-01-28 07:44:00,
2013-01-28 02:50:00,24.4,9.3,30.24,SE,135,6.0,6.0,52,0.00,OVC,,0.00,0.0,WeatherDisplay:10.37,2013-01-28 07:50:00,
2013-01-28 02:55:00,24.4,9.3,30.24,SE,135,5.8,5.8,52,0.00,OVC,,0.00,0.0,WeatherDisplay:10.37,2013-01-28 07:55:00,
2013-01-28 03:00:00,24.4,9.3,30.24,SSE,158,7.4,7.4,52,0.00,OVC,,0.00,0.0,WeatherDisplay:10.37,2013-01-28 08:00:00,
2013-01-28 03:05:00,24.4,9.3,30.24,SSE,158,5.8,5.8,52,0.00,OVC,,0.00,0.0,WeatherDisplay:10.37,2013-01-28 08:05:00,
2013-01-28 03:10:00,24.4,10.2,30.24,SSE,158,5.8,5.8,54,0.00,OVC,,0.00,0.0,WeatherDisplay:10.37,2013-01-28 08:10:00,
2013-01-28 03:15:00,24.4,10.2,30.24,SE,135,5.9,5.9,54,0.00,OVC,,0.00,0.0,WeatherDisplay:10.37,2013-01-28 08:15:00,
2013-01-28 03:20:00,24.6,10.3,30.24,ESE,112,7.4,7.4,54,0.00,OVC,,0.00,0.0,WeatherDisplay:10.37,2013-01-28 08:20:00,
2013-01-28 03:25:00,24.8,9.6,30.24,SSE,158,5.6,0.0,52,0.00,OVC,,0.00,0.0,WeatherDisplay:10.37,2013-01-28 08:25:00,
2013-01-28 03:30:00,24.8,9.6,30.21,SSE,158,4.6,4.6,52,0.00,OVC,,0.00,0.0,WeatherDisplay:10.37,2013-01-28 08:30:00,
2013-01-28 03:35:00,25.0,9.4,30.21,SSE,158,5.8,5.8,51,0.00,OVC,,0.00,0.0,WeatherDisplay:10.37,2013-01-28 08:35:00,
2013-01-28 03:40:00,25.0,9.4,30.21,ESE,112,5.8,5.8,51,0.00,OVC,,0.00,0.0,WeatherDisplay:10.37,2013-01-28 08:40:00,
2013-01-28 03:45:00,25.2,9.5,30.21,SE,135,5.8,5.8,51,0.00,OVC,,0.00,0.0,WeatherDisplay:10.37,2013-01-28 08:45:00,
2013-01-28 03:50:00,25.2,9.5,30.21,SE,135,6.9,6.9,51,0.00,OVC,,0.00,0.0,WeatherDisplay:10.37,2013-01-28 08:50:00,
2013-01-28 03:55:00,25.2,9.5,30.21,ESE,112,5.8,5.8,51,0.00,OVC,,0.00,0.0,WeatherDisplay:10.37,2013-01-28 08:55:00,
2013-01-28 04:00:00,25.3,9.7,30.18,ESE,112,4.6,4.6,51,0.00,OVC,,0.00,0.0,WeatherDisplay:10.37,2013-01-28 09:00:00,
2013-01-28 04:05:00,25.3,9.7,30.18,SE,135,3.1,3.1,51,0.00,OVC,,0.00,0.0,WeatherDisplay:10.37,2013-01-28 09:05:00,
2013-01-28 04:10:00,25.3,9.7,30.18,SE,135,3.5,3.5,51,0.00,OVC,,0.00,0.0,WeatherDisplay:10.37,2013-01-28 09:10:00,
2013-01-28 04:15:00,25.3,9.7,30.15,SE,135,4.6,4.6,51,0.00,OVC,,0.00,0.0,WeatherDisplay:10.37,2013-01-28 09:15:00,
2013-01-28 04:20:00,25.5,9.9,30.15,SSE,158,5.9,5.9,51,0.00,OVC,,0.00,0.0,WeatherDisplay:10.37,2013-01-28 09:20:00,
2013-01-28 04:25:00,25.7,10.0,30.18,ESE,112,4.9,4.9,51,0.00,OVC,,0.00,0.0,WeatherDisplay:10.37,2013-01-28 09:25:00,
2013-01-28 04:30:00,25.7,10.0,30.18,SE,135,3.5,3.5,51,0.00,OVC,,0.00,0.0,WeatherDisplay:10.37,2013-01-28 09:30:00,
2013-01-28 04:35:00,25.9,10.2,30.18,SSW,202,4.6,4.6,51,0.00,OVC,,0.00,0.0,WeatherDisplay:10.37,2013-01-28 09:35:00,
2013-01-28 04:40:00,25.9,10.2,30.18,SSE,158,3.5,3.5,51,0.00,OVC,,0.00,0.0,WeatherDisplay:10.37,2013-01-28 09:40:00,
2013-01-28 04:45:00,26.1,10.4,30.18,South,180,2.3,2.3,51,0.00,OVC,,0.00,0.0,WeatherDisplay:10.37,2013-01-28 09:45:00,
2013-01-28 04:50:00,26.1,10.4,30.18,South,180,2.3,2.3,51,0.00,OVC,,0.00,0.0,WeatherDisplay:10.37,2013-01-28 09:50:00,
2013-01-28 04:55:00,26.2,10.5,30.18,SSE,158,0.0,0.0,51,0.00,OVC,,0.00,0.0,WeatherDisplay:10.37,2013-01-28 09:55:00,
2013-01-28 05:00:00,26.2,10.5,30.18,SSE,158,2.3,2.3,51,0.00,OVC,,0.00,0.0,WeatherDisplay:10.37,2013-01-28 10:00:00,
2013-01-28 05:06:00,26.2,10.5,30.18,SSE,158,2.3,0.0,51,0.00,OVC,,0.00,0.0,WeatherDisplay:10.37,2013-01-28 10:06:00,
2013-01-28 05:11:00,26.4,10.7,30.18,SSE,158,2.3,2.3,51,0.00,OVC,,0.00,0.0,WeatherDisplay:10.37,2013-01-28 10:11:00,
2013-01-28 05:16:00,26.4,10.7,30.18,SE,135,2.3,2.3,51,0.00,OVC,,0.00,0.0,WeatherDisplay:10.37,2013-01-28 10:16:00,
2013-01-28 05:21:00,26.4,10.7,30.18,SE,135,3.5,3.5,51,0.00,OVC,,0.00,0.0,WeatherDisplay:10.37,2013-01-28 10:21:00,
2013-01-28 05:26:00,26.4,12.0,30.18,SE,135,3.6,3.6,54,0.00,OVC,,0.00,0.0,WeatherDisplay:10.37,2013-01-28 10:26:00,
2013-01-28 05:31:00,26.4,12.0,30.18,SE,135,4.6,4.6,54,0.00,OVC,,0.00,0.0,WeatherDisplay:10.37,2013-01-28 10:31:00,
2013-01-28 05:36:00,26.4,10.7,30.18,ESE,112,3.8,3.8,51,0.00,OVC,,0.00,0.0,WeatherDisplay:10.37,2013-01-28 10:36:00,
2013-01-28 05:41:00,26.4,12.0,30.15,ESE,112,5.8,5.8,54,0.00,OVC,,0.00,0.0,WeatherDisplay:10.37,2013-01-28 10:41:00,
2013-01-28 05:46:00,26.6,10.9,30.15,ESE,112,5.8,5.8,51,0.00,OVC,,0.00,0.0,WeatherDisplay:10.37,2013-01-28 10:46:00,
2013-01-28 05:51:00,26.6,10.9,30.15,ESE,112,4.6,4.6,51,0.00,OVC,,0.00,0.0,WeatherDisplay:10.37,2013-01-28 10:51:00,
2013-01-28 05:56:00,26.8,11.0,30.12,SSE,158,5.8,5.8,51,0.00,OVC,,0.00,0.0,WeatherDisplay:10.37,2013-01-28 10:56:00,
2013-01-28 06:01:00,26.8,11.9,30.12,SE,135,4.0,4.0,53,0.00,OVC,,0.00,0.0,WeatherDisplay:10.37,2013-01-28 11:01:00,
2013-01-28 06:06:00,27.0,12.1,30.12,SE,135,5.8,5.8,53,0.00,-SN,,0.00,0.0,WeatherDisplay:10.37,2013-01-28 11:06:00,
2013-01-28 06:11:00,27.0,12.1,30.12,SSW,202,5.8,5.8,53,0.00,-SN,,0.00,0.0,WeatherDisplay:10.37,2013-01-28 11:11:00,
2013-01-28 06:16:00,27.1,12.3,30.12,ESE,112,8.1,8.1,53,0.00,-SN,,0.00,0.0,WeatherDisplay:10.37,2013-01-28 11:16:00,
2013-01-28 06:21:00,27.1,11.4,30.12,ENE,68,5.8,5.8,51,0.00,-SN,,0.00,0.0,WeatherDisplay:10.37,2013-01-28 11:21:00,
2013-01-28 06:26:00,27.3,12.4,30.09,ESE,112,6.9,6.9,53,0.00,-SN,,0.00,0.0,WeatherDisplay:10.37,2013-01-28 11:26:00,
2013-01-28 06:31:00,27.5,11.7,30.09,ESE,112,5.9,5.9,51,0.00,-SN,,0.00,0.0,WeatherDisplay:10.37,2013-01-28 11:31:00,
2013-01-28 06:36:00,27.5,11.7,30.09,SSE,158,6.0,6.0,51,0.00,-SN,,0.00,0.0,WeatherDisplay:10.37,2013-01-28 11:36:00,
2013-01-28 06:41:00,27.5,12.6,30.12,SE,135,8.1,8.1,53,0.00,-SN,,0.00,0.0,WeatherDisplay:10.37,2013-01-28 11:41:00,
2013-01-28 06:46:00,27.7,12.8,30.12,SE,135,9.2,9.2,53,0.00,-SN,,0.00,0.0,WeatherDisplay:10.37,2013-01-28 11:46:00,
2013-01-28 06:51:00,27.9,12.9,30.12,SSE,158,8.1,8.1,53,0.00,-SN,,0.00,0.0,WeatherDisplay:10.37,2013-01-28 11:51:00,
2013-01-28 06:56:00,27.9,12.9,30.12,SSE,158,9.2,9.2,53,0.00,-SN,,0.00,0.0,WeatherDisplay:10.37,2013-01-28 11:56:00,
2013-01-28 07:01:00,27.9,12.9,30.12,ESE,112,9.2,9.2,53,0.00,-SN,,0.00,0.0,WeatherDisplay:10.37,2013-01-28 12:01:00,
2013-01-28 07:06:00,27.7,12.8,30.12,ESE,112,10.0,10.0,53,0.00,-SN,,0.00,0.0,WeatherDisplay:10.37,2013-01-28 12:06:00,
2013-01-28 07:11:00,27.5,12.6,30.09,SSE,158,12.1,12.1,53,0.00,-SN,,0.00,0.0,WeatherDisplay:10.37,2013-01-28 12:11:00,
2013-01-28 07:16:00,27.1,12.3,30.09,ESE,112,8.1,8.1,53,0.00,-SN,,0.00,0.0,WeatherDisplay:10.37,2013-01-28 12:16:00,
2013-01-28 07:21:00,27.0,12.1,30.09,SSW,202,11.5,11.5,53,0.00,-SN,,0.00,0.0,WeatherDisplay:10.37,2013-01-28 12:21:00,
2013-01-28 07:26:00,26.6,13.0,30.09,ESE,112,10.4,10.4,56,0.00,-SN,,0.00,0.0,WeatherDisplay:10.37,2013-01-28 12:26:00,
2013-01-28 07:31:00,26.6,14.2,30.09,SE,135,8.1,8.1,59,0.00,-SN,,0.00,0.0,WeatherDisplay:10.37,2013-01-28 12:31:00,
2013-01-28 07:36:00,26.4,15.2,30.09,ESE,112,9.2,9.2,62,0.00,-SN,,0.00,0.0,WeatherDisplay:10.37,2013-01-28 12:36:00,
2013-01-28 07:41:00,26.4,15.2,30.06,ESE,112,10.4,10.4,62,0.00,-SN,,0.00,0.0,WeatherDisplay:10.37,2013-01-28 12:41:00,
2013-01-28 07:46:00,26.4,15.2,30.06,ESE,112,10.4,10.4,62,0.00,-SN,,0.00,0.0,WeatherDisplay:10.37,2013-01-28 12:46:00,
2013-01-28 07:51:00,26.6,15.3,30.06,SE,135,10.4,10.4,62,0.00,-SN,,0.00,0.0,WeatherDisplay:10.37,2013-01-28 12:51:00,
2013-01-28 07:56:00,26.6,15.7,30.06,SE,135,10.9,10.9,63,0.00,-SN,,0.00,0.0,WeatherDisplay:10.37,2013-01-28 12:56:00,
2013-01-28 08:01:00,26.8,15.9,30.06,SSE,158,10.4,10.4,63,0.00,-SN,,0.00,0.0,WeatherDisplay:10.37,2013-01-28 13:01:00,
2013-01-28 08:06:00,26.8,15.9,30.06,ENE,68,8.1,8.1,63,0.00,-SN,,0.00,0.0,WeatherDisplay:10.37,2013-01-28 13:06:00,
2013-01-28 08:11:00,27.0,16.4,30.06,SSE,158,7.4,7.4,64,0.00,-SN,,0.00,0.0,WeatherDisplay:10.37,2013-01-28 13:11:00,
2013-01-28 08:17:00,27.0,16.4,30.06,SE,135,6.9,6.9,64,0.00,-SN,,0.00,0.0,WeatherDisplay:10.37,2013-01-28 13:17:00,
2013-01-28 08:22:00,27.1,16.6,30.06,East,90,5.9,5.9,64,0.00,-SN,,0.00,0.0,WeatherDisplay:10.37,2013-01-28 13:22:00,
2013-01-28 08:27:00,27.1,16.9,30.06,SSW,202,10.9,10.9,65,0.00,-SN,,0.00,0.0,WeatherDisplay:10.37,2013-01-28 13:27:00,
2013-01-28 08:32:00,27.3,17.1,30.06,SE,135,8.1,8.1,65,0.00,-SN,,0.00,0.0,WeatherDisplay:10.37,2013-01-28 13:32:00,
2013-01-28 08:37:00,27.5,17.3,30.06,SSE,158,5.8,5.8,65,0.00,-SN,,0.00,0.0,WeatherDisplay:10.37,2013-01-28 13:37:00,
2013-01-28 08:42:00,27.9,17.6,30.06,SE,135,5.9,5.9,65,0.00,-SN,,0.00,0.0,WeatherDisplay:10.37,2013-01-28 13:42:00,
2013-01-28 08:47:00,28.2,18.0,30.06,South,180,10.4,10.4,65,0.00,-SN,,0.00,0.0,WeatherDisplay:10.37,2013-01-28 13:47:00,
2013-01-28 08:52:00,28.6,17.9,30.06,WSW,248,17.3,17.3,64,0.00,-SN,,0.00,0.0,WeatherDisplay:10.37,2013-01-28 13:52:00,
2013-01-28 08:57:00,28.8,18.1,30.03,South,180,7.4,7.4,64,0.00,-SN,,0.00,0.0,WeatherDisplay:10.37,2013-01-28 13:57:00,
2013-01-28 09:02:00,28.9,18.3,30.03,SSE,158,8.1,8.1,64,0.00,-SN,,0.00,0.0,WeatherDisplay:10.37,2013-01-28 14:02:00,
2013-01-28 09:07:00,29.1,18.5,30.03,SSE,158,3.6,3.6,64,0.00,OVC,,0.00,0.0,WeatherDisplay:10.37,2013-01-28 14:07:00,
2013-01-28 09:12:00,29.3,18.6,30.03,ESE,112,5.8,5.8,64,0.00,OVC,,0.00,0.0,WeatherDisplay:10.37,2013-01-28 14:12:00,
2013-01-28 09:17:00,29.5,18.8,30.03,SSE,158,10.0,10.0,64,0.00,OVC,,0.00,0.0,WeatherDisplay:10.37,2013-01-28 14:17:00,
2013-01-28 09:22:00,29.8,19.1,30.03,SSW,202,5.8,5.8,64,0.00,OVC,,0.00,0.0,WeatherDisplay:10.37,2013-01-28 14:22:00,
2013-01-28 09:27:00,30.0,19.3,30.03,SE,135,5.9,5.9,64,0.00,OVC,,0.00,0.0,WeatherDisplay:10.37,2013-01-28 14:27:00,
2013-01-28 09:32:00,30.0,19.3,30.03,SSE,158,7.4,7.4,64,0.00,OVC,,0.00,0.0,WeatherDisplay:10.37,2013-01-28 14:32:00,
2013-01-28 09:37:00,30.0,19.3,30.03,ESE,112,8.1,8.1,64,0.00,OVC,,0.00,0.0,WeatherDisplay:10.37,2013-01-28 14:37:00,
2013-01-28 09:42:00,30.2,19.5,30.00,ESE,112,10.4,10.4,64,0.00,OVC,,0.00,0.0,WeatherDisplay:10.37,2013-01-28 14:42:00,
2013-01-28 09:47:00,30.6,19.8,30.00,NNE,22,9.2,9.2,64,0.00,OVC,,0.00,0.0,WeatherDisplay:10.37,2013-01-28 14:47:00,
2013-01-28 09:52:00,30.6,19.5,30.00,SSW,202,9.4,9.4,63,0.00,OVC,,0.00,0.0,WeatherDisplay:10.37,2013-01-28 14:52:00,
2013-01-28 09:57:00,30.6,19.5,30.00,SE,135,9.2,9.2,63,0.00,OVC,,0.00,0.0,WeatherDisplay:10.37,2013-01-28 14:57:00,
2013-01-28 10:02:00,30.7,19.6,30.00,SSE,158,10.4,10.4,63,0.00,OVC,,0.00,0.0,WeatherDisplay:10.37,2013-01-28 15:02:00,
2013-01-28 10:07:00,30.6,19.5,30.00,SE,135,11.5,11.5,63,0.00,OVC,,0.00,0.0,WeatherDisplay:10.37,2013-01-28 15:07:00,
2013-01-28 10:12:00,30.6,19.5,29.97,SE,135,8.1,8.1,63,0.00,OVC,,0.00,0.0,WeatherDisplay:10.37,2013-01-28 15:12:00,
2013-01-28 10:17:00,30.4,19.6,29.97,ESE,112,9.2,9.2,64,0.00,OVC,,0.00,0.0,WeatherDisplay:10.37,2013-01-28 15:17:00,
2013-01-28 10:22:00,30.6,19.8,29.97,SE,135,8.5,8.5,64,0.00,OVC,,0.00,0.0,WeatherDisplay:10.37,2013-01-28 15:22:00,
2013-01-28 10:27:00,30.6,19.8,29.97,ENE,68,7.1,7.1,64,0.00,OVC,,0.00,0.0,WeatherDisplay:10.37,2013-01-28 15:27:00,
2013-01-28 10:32:00,30.7,20.0,29.97,SSE,158,5.8,5.8,64,0.00,OVC,,0.00,0.0,WeatherDisplay:10.37,2013-01-28 15:32:00,
2013-01-28 10:37:00,30.7,20.0,29.97,ESE,112,8.1,8.1,64,0.00,OVC,,0.00,0.0,WeatherDisplay:10.37,2013-01-28 15:37:00,
2013-01-28 10:42:00,30.7,20.0,29.97,SE,135,12.7,12.7,64,0.00,OVC,,0.00,0.0,WeatherDisplay:10.37,2013-01-28 15:42:00,
2013-01-28 10:47:00,30.7,20.4,29.97,ESE,112,9.7,9.7,65,0.00,OVC,,0.00,0.0,WeatherDisplay:10.37,2013-01-28 15:47:00,
2013-01-28 10:52:00,30.9,20.5,29.97,SSE,158,8.1,8.1,65,0.00,OVC,,0.00,0.0,WeatherDisplay:10.37,2013-01-28 15:52:00,
2013-01-28 10:57:00,31.1,20.7,29.94,SW,225,9.7,9.7,65,0.00,OVC,,0.00,0.0,WeatherDisplay:10.37,2013-01-28 15:57:00,
2013-01-28 11:02:00,31.3,20.9,29.94,ESE,112,8.1,8.1,65,0.00,OVC,,0.00,0.0,WeatherDisplay:10.37,2013-01-28 16:02:00,
2013-01-28 11:07:00,31.5,21.0,29.94,SSW,202,10.4,10.4,65,0.00,OVC,,0.00,0.0,WeatherDisplay:10.37,2013-01-28 16:07:00,
2013-01-28 11:12:00,31.6,21.2,29.94,ENE,68,12.1,12.1,65,0.00,OVC,,0.00,0.0,WeatherDisplay:10.37,2013-01-28 16:12:00,
2013-01-28 11:17:00,32.0,21.6,29.94,SE,135,4.6,4.6,65,0.00,OVC,,0.00,0.0,WeatherDisplay:10.37,2013-01-28 16:17:00,
2013-01-28 11:22:00,32.0,21.6,29.94,ESE,112,9.2,9.2,65,0.00,OVC,,0.00,0.0,WeatherDisplay:10.37,2013-01-28 16:22:00,
2013-01-28 11:28:00,32.2,21.7,29.94,SSE,158,6.9,6.9,65,0.00,OVC,,0.00,0.0,WeatherDisplay:10.37,2013-01-28 16:28:00,
2013-01-28 11:33:00,32.4,21.9,29.94,SSE,158,5.8,5.8,65,0.00,OVC,,0.00,0.0,WeatherDisplay:10.37,2013-01-28 16:33:00,
2013-01-28 11:38:00,32.5,22.1,29.94,SSE,158,7.8,7.8,65,0.00,OVC,,0.00,0.0,WeatherDisplay:10.37,2013-01-28 16:38:00,
2013-01-28 11:43:00,32.7,22.2,29.94,ESE,112,8.7,8.7,65,0.00,OVC,,0.00,0.0,WeatherDisplay:10.37,2013-01-28 16:43:00,
2013-01-28 11:48:00,32.9,22.4,29.94,ESE,112,6.2,6.2,65,0.00,OVC,,0.00,0.0,WeatherDisplay:10.37,2013-01-28 16:48:00,
2013-01-28 11:53:00,32.9,22.0,29.94,SE,135,5.8,5.8,64,0.00,OVC,,0.00,0.0,WeatherDisplay:10.37,2013-01-28 16:53:00,
2013-01-28 11:58:00,33.1,22.6,29.94,SE,135,9.2,9.2,65,0.00,OVC,,0.00,0.0,WeatherDisplay:10.37,2013-01-28 16:58:00,
2013-01-28 12:03:00,33.3,22.4,29.94,ESE,112,8.1,8.1,64,0.00,OVC,,0.00,0.0,WeatherDisplay:10.37,2013-01-28 17:03:00,
2013-01-28 12:08:00,33.3,22.4,29.94,SE,135,2.6,2.6,64,0.00,OVC,,0.00,0.0,WeatherDisplay:10.37,2013-01-28 17:08:00,
2013-01-28 12:13:00,33.4,22.9,29.91,SE,135,4.7,4.7,65,0.00,OVC,,0.00,0.0,WeatherDisplay:10.37,2013-01-28 17:13:00,
2013-01-28 12:18:00,33.6,23.1,29.91,East,90,4.6,4.6,65,0.00,OVC,,0.00,0.0,WeatherDisplay:10.37,2013-01-28 17:18:00,
2013-01-28 12:23:00,33.6,23.1,29.91,SE,135,5.8,5.8,65,0.00,OVC,,0.00,0.0,WeatherDisplay:10.37,2013-01-28 17:23:00,
2013-01-28 12:28:00,33.6,23.1,29.91,ESE,112,4.6,4.6,65,0.00,OVC,,0.00,0.0,WeatherDisplay:10.37,2013-01-28 17:28:00,
2013-01-28 12:33:00,33.6,23.1,29.91,ESE,112,4.0,4.0,65,0.00,OVC,,0.00,0.0,WeatherDisplay:10.37,2013-01-28 17:33:00,
2013-01-28 12:38:00,33.8,23.3,29.91,SE,135,8.5,8.5,65,0.00,OVC,,0.00,0.0,WeatherDisplay:10.37,2013-01-28 17:38:00,
2013-01-28 12:43:00,34.0,23.4,29.85,ESE,112,4.6,4.6,65,0.00,OVC,,0.00,0.0,WeatherDisplay:10.37,2013-01-28 17:43:00,
2013-01-28 12:48:00,34.2,23.6,29.85,SSW,202,3.5,3.5,65,0.00,OVC,,0.00,0.0,WeatherDisplay:10.37,2013-01-28 17:48:00,
2013-01-28 12:53:00,34.3,23.8,29.85,SSW,202,4.6,4.6,65,0.00,OVC,,0.00,0.0,WeatherDisplay:10.37,2013-01-28 17:53:00,
2013-01-28 12:58:00,34.5,24.0,29.88,ESE,112,5.8,5.8,65,0.00,OVC,,0.00,0.0,WeatherDisplay:10.37,2013-01-28 17:58:00,
2013-01-28 13:03:00,34.3,23.8,29.88,SE,135,5.9,5.9,65,0.00,-RA,,0.00,0.0,WeatherDisplay:10.37,2013-01-28 18:03:00,
2013-01-28 13:08:00,34.3,23.8,29.88,SSE,158,2.9,2.9,65,0.00,-RA,,0.00,0.0,WeatherDisplay:10.37,2013-01-28 18:08:00,
2013-01-28 13:13:00,34.3,23.8,29.88,SSE,158,4.6,4.6,65,0.00,-RA,,0.00,0.0,WeatherDisplay:10.37,2013-01-28 18:13:00,
2013-01-28 13:18:00,34.5,24.0,29.88,SE,135,2.3,2.3,65,0.00,-RA,,0.00,0.0,WeatherDisplay:10.37,2013-01-28 18:18:00,
2013-01-28 13:23:00,34.7,24.1,29.88,SSE,158,6.2,6.2,65,0.00,-RA,,0.00,0.0,WeatherDisplay:10.37,2013-01-28 18:23:00,
2013-01-28 13:28:00,34.9,24.3,29.85,SSE,158,4.6,4.6,65,0.00,-RA,,0.00,0.0,WeatherDisplay:10.37,2013-01-28 18:28:00,
2013-01-28 13:33:00,34.9,24.3,29.85,ESE,112,6.0,6.0,65,0.00,-RA,,0.00,0.0,WeatherDisplay:10.37,2013-01-28 18:33:00,
2013-01-28 13:38:00,34.9,24.3,29.85,SE,135,6.0,6.0,65,0.00,-RA,,0.00,0.0,WeatherDisplay:10.37,2013-01-28 18:38:00,
2013-01-28 13:43:00,35.1,24.5,29.85,SE,135,4.0,4.0,65,0.00,-RA,,0.00,0.0,WeatherDisplay:10.37,2013-01-28 18:43:00,
2013-01-28 13:48:00,35.4,24.8,29.85,SE,135,1.1,0.0,65,0.00,-RA,,0.00,0.0,WeatherDisplay:10.37,2013-01-28 18:48:00,
2013-01-28 13:53:00,35.4,24.8,29.85,SE,135,3.5,3.6,65,0.00,-RA,,0.00,0.0,WeatherDisplay:10.37,2013-01-28 18:53:00,
2013-01-28 13:58:00,35.2,24.6,29.85,SSE,158,5.8,5.8,65,0.00,-RA,,0.00,0.0,WeatherDisplay:10.37,2013-01-28 18:58:00,
2013-01-28 14:03:00,35.2,24.6,29.85,SSE,158,6.2,6.2,65,0.00,-RA,,0.00,0.0,WeatherDisplay:10.37,2013-01-28 19:03:00,
2013-01-28 14:08:00,35.4,24.8,29.85,SE,135,2.4,2.4,65,0.00,-RA,,0.00,0.0,WeatherDisplay:10.37,2013-01-28 19:08:00,
2013-01-28 14:13:00,35.8,25.2,29.83,SE,135,2.3,2.3,65,0.00,-RA,,0.00,0.0,WeatherDisplay:10.37,2013-01-28 19:13:00,
2013-01-28 14:18:00,36.0,25.3,29.83,SE,135,3.5,3.5,65,0.00,-RA,,0.00,0.0,WeatherDisplay:10.37,2013-01-28 19:18:00,
2013-01-28 14:23:00,36.1,25.1,29.83,SE,135,1.1,1.1,64,0.00,-RA,,0.00,0.0,WeatherDisplay:10.37,2013-01-28 19:23:00,
2013-01-28 14:28:00,36.1,25.1,29.83,SE,135,1.1,0.0,64,0.00,-RA,,0.00,0.0,WeatherDisplay:10.37,2013-01-28 19:28:00,
2013-01-28 14:34:00,36.1,25.1,29.83,SE,135,5.8,5.8,64,0.00,-RA,,0.00,0.0,WeatherDisplay:10.37,2013-01-28 19:34:00,
2013-01-28 14:39:00,36.1,25.1,29.83,SE,135,3.5,3.5,64,0.00,-RA,,0.00,0.0,WeatherDisplay:10.37,2013-01-28 19:39:00,
2013-01-28 14:44:00,36.1,25.1,29.83,SE,135,0.0,0.0,64,0.04,-RA,,0.04,0.0,WeatherDisplay:10.37,2013-01-28 19:44:00,
2013-01-28 14:49:00,36.1,25.1,29.83,SE,135,3.8,3.8,64,0.04,-RA,,0.04,0.0,WeatherDisplay:10.37,2013-01-28 19:49:00,
2013-01-28 14:54:00,36.3,25.3,29.83,SE,135,2.4,0.0,64,0.04,-RA,,0.04,0.0,WeatherDisplay:10.37,2013-01-28 19:54:00,
2013-01-28 14:59:00,36.1,25.1,29.83,SE,135,2.3,0.0,64,0.04,-RA,,0.04,0.0,WeatherDisplay:10.37,2013-01-28 19:59:00,
2013-01-28 15:04:00,36.1,25.1,29.83,SE,135,1.4,1.4,64,0.04,-RA,,0.04,0.0,WeatherDisplay:10.37,2013-01-28 20:04:00,
2013-01-28 15:09:00,36.1,25.1,29.83,SE,135,3.5,3.5,64,0.04,-RA,,0.04,0.0,WeatherDisplay:10.37,2013-01-28 20:09:00,
2013-01-28 15:14:00,36.3,25.3,29.83,SE,135,1.1,0.0,64,0.04,-RA,,0.04,0.0,WeatherDisplay:10.37,2013-01-28 20:14:00,
2013-01-28 15:19:00,36.3,25.3,29.83,SE,135,4.6,4.6,64,0.04,-RA,,0.04,0.0,WeatherDisplay:10.37,2013-01-28 20:19:00,
2013-01-28 15:24:00,36.3,25.3,29.83,SE,135,3.5,3.5,64,0.04,-RA,,0.04,0.0,WeatherDisplay:10.37,2013-01-28 20:24:00,
2013-01-28 15:29:00,36.3,25.3,29.83,SE,135,2.3,2.3,64,0.04,-RA,,0.04,0.0,WeatherDisplay:10.37,2013-01-28 20:29:00,
2013-01-28 15:34:00,36.3,25.3,29.83,SE,135,3.3,0.0,64,0.04,-RA,,0.04,0.0,WeatherDisplay:10.37,2013-01-28 20:34:00,
2013-01-28 15:39:00,36.3,25.3,29.83,SE,135,1.1,0.0,64,0.04,-RA,,0.04,0.0,WeatherDisplay:10.37,2013-01-28 20:39:00,
2013-01-28 15:44:00,36.3,25.3,29.83,SE,135,1.1,1.1,64,0.00,-RA,,0.04,0.0,WeatherDisplay:10.37,2013-01-28 20:44:00,
2013-01-28 15:49:00,36.5,25.5,29.83,SE,135,2.4,2.4,64,0.05,-RA,,0.09,0.0,WeatherDisplay:10.37,2013-01-28 20:49:00,
2013-01-28 15:54:00,36.5,25.5,29.83,SE,135,1.1,0.0,64,0.05,-RA,,0.09,0.0,WeatherDisplay:10.37,2013-01-28 20:54:00,
2013-01-28 15:59:00,36.3,25.3,29.83,SE,135,1.1,1.1,64,0.05,-RA,,0.09,0.0,WeatherDisplay:10.37,2013-01-28 20:59:00,
2013-01-28 16:04:00,36.3,25.3,29.83,SE,135,1.1,0.0,64,0.05,-RA,,0.09,0.0,WeatherDisplay:10.37,2013-01-28 21:04:00,
2013-01-28 16:09:00,36.3,25.3,29.83,SE,135,0.0,0.0,64,0.05,-RA,,0.09,0.0,WeatherDisplay:10.37,2013-01-28 21:09:00,
2013-01-28 16:14:00,36.1,25.1,29.83,SE,135,0.0,0.0,64,0.05,-RA,,0.09,0.0,WeatherDisplay:10.37,2013-01-28 21:14:00,
2013-01-28 16:19:00,36.1,25.5,29.83,SE,135,3.5,0.0,65,0.05,-RA,,0.09,0.0,WeatherDisplay:10.37,2013-01-28 21:19:00,
2013-01-28 16:24:00,36.3,25.7,29.83,SE,135,1.4,1.4,65,0.05,-RA,,0.09,0.0,WeatherDisplay:10.37,2013-01-28 21:24:00,
2013-01-28 16:29:00,36.1,25.9,29.83,SE,135,2.6,2.6,66,0.05,-RA,,0.09,0.0,WeatherDisplay:10.37,2013-01-28 21:29:00,
2013-01-28 16:34:00,36.1,25.9,29.83,SE,135,1.1,1.1,66,0.08,-RA,,0.12,0.0,WeatherDisplay:10.37,2013-01-28 21:34:00,
2013-01-28 16:39:00,36.1,25.9,29.83,SE,135,1.1,0.0,66,0.08,-RA,,0.12,0.0,WeatherDisplay:10.37,2013-01-28 21:39:00,
2013-01-28 16:44:00,36.1,25.9,29.83,SE,135,0.0,0.0,66,0.08,-RA,,0.12,0.0,WeatherDisplay:10.37,2013-01-28 21:44:00,
2013-01-28 16:49:00,36.1,25.9,29.83,SE,135,0.0,0.0,66,0.03,-RA,,0.12,0.0,WeatherDisplay:10.37,2013-01-28 21:49:00,
2013-01-28 16:54:00,36.3,26.0,29.83,SE,135,0.0,0.0,66,0.03,-RA,,0.12,0.0,WeatherDisplay:10.37,2013-01-28 21:54:00,
2013-01-28 16:59:00,36.3,26.4,29.85,SE,135,0.0,0.0,67,0.03,-RA,,0.12,0.0,WeatherDisplay:10.37,2013-01-28 21:59:00,
2013-01-28 17:04:00,36.3,26.4,29.85,SE,135,2.3,2.3,67,0.03,-RA,,0.12,0.0,WeatherDisplay:10.37,2013-01-28 22:04:00,
2013-01-28 17:09:00,36.3,26.8,29.85,SE,135,0.0,0.0,68,0.03,-RA,,0.12,0.0,WeatherDisplay:10.37,2013-01-28 22:09:00,
2013-01-28 17:14:00,36.3,26.8,29.83,SE,135,1.1,0.0,68,0.03,-RA,,0.12,0.0,WeatherDisplay:10.37,2013-01-28 22:14:00,
2013-01-28 17:19:00,36.5,27.3,29.83,SE,135,0.0,0.0,69,0.03,-RA,,0.12,0.0,WeatherDisplay:10.37,2013-01-28 22:19:00,
2013-01-28 17:24:00,36.7,27.5,29.83,SE,135,0.0,0.0,69,0.03,-RA,,0.12,0.0,WeatherDisplay:10.37,2013-01-28 22:24:00,
2013-01-28 17:29:00,36.7,27.5,29.83,SE,135,0.0,0.0,69,0.03,-RA,,0.12,0.0,WeatherDisplay:10.37,2013-01-28 22:29:00,
2013-01-28 17:34:00,37.0,28.2,29.83,SE,135,2.4,2.4,70,0.05,-RA,,0.17,0.0,WeatherDisplay:10.37,2013-01-28 22:34:00,
2013-01-28 17:39:00,37.0,28.2,29.83,SE,135,0.0,0.0,70,0.05,-RA,,0.17,0.0,WeatherDisplay:10.37,2013-01-28 22:39:00,
2013-01-28 17:44:00,37.2,28.3,29.83,SE,135,3.5,3.5,70,0.05,-RA,,0.17,0.0,WeatherDisplay:10.37,2013-01-28 22:44:00,
2013-01-28 17:50:00,37.2,28.3,29.83,SE,135,0.0,0.0,70,0.05,-RA,,0.17,0.0,WeatherDisplay:10.37,2013-01-28 22:50:00,
2013-01-28 17:55:00,37.2,28.3,29.83,SE,135,0.0,0.0,70,0.05,-RA,,0.17,0.0,WeatherDisplay:10.37,2013-01-28 22:55:00,
2013-01-28 18:00:00,37.6,29.0,29.83,SE,135,2.3,0.0,71,0.05,-RA,,0.17,0.0,WeatherDisplay:10.37,2013-01-28 23:00:00,
2013-01-28 18:05:00,37.8,29.5,29.83,SSE,158,0.0,0.0,72,0.05,-RA,,0.17,0.0,WeatherDisplay:10.37,2013-01-28 23:05:00,
2013-01-28 18:10:00,37.8,29.5,29.83,SSE,158,0.0,0.0,72,0.05,-RA,,0.17,0.0,WeatherDisplay:10.37,2013-01-28 23:10:00,
2013-01-28 18:15:00,37.9,29.7,29.83,SSE,158,0.0,0.0,72,0.05,-RA,,0.17,0.0,WeatherDisplay:10.37,2013-01-28 23:15:00,
2013-01-28 18:20:00,38.1,31.2,29.83,SSE,158,0.0,0.0,76,0.05,-RA,,0.17,0.0,WeatherDisplay:10.37,2013-01-28 23:20:00,
2013-01-28 18:25:00,38.3,31.4,29.83,SSE,158,0.0,0.0,76,0.09,-RA,,0.21,0.0,WeatherDisplay:10.37,2013-01-28 23:25:00,
2013-01-28 18:30:00,38.3,30.7,29.83,SSE,158,1.4,0.0,74,0.09,-RA,,0.21,0.0,WeatherDisplay:10.37,2013-01-28 23:30:00,
2013-01-28 18:35:00,38.5,30.9,29.83,SSE,158,1.1,1.1,74,0.04,-RA,,0.21,0.0,WeatherDisplay:10.37,2013-01-28 23:35:00,
2013-01-28 18:40:00,38.5,30.9,29.83,SSE,158,0.0,0.0,74,0.04,-RA,,0.21,0.0,WeatherDisplay:10.37,2013-01-28 23:40:00,
2013-01-28 18:45:00,38.7,32.1,29.83,SSE,158,2.4,0.0,77,0.04,-RA,,0.21,0.0,WeatherDisplay:10.37,2013-01-28 23:45:00,
2013-01-28 18:50:00,39.2,33.9,29.83,South,180,2.3,2.3,81,0.04,-RA,,0.21,0.0,WeatherDisplay:10.37,2013-01-28 23:50:00,
2013-01-28 18:55:00,39.6,39.6,29.83,SSW,202,2.3,2.3,100,0.04,-RA,,0.21,0.0,WeatherDisplay:10.37,2013-01-28 23:55:00,
2013-01-28 19:00:00,39.9,39.9,29.83,SSW,202,2.3,2.3,100,0.08,-RA,,0.25,0.0,WeatherDisplay:10.37,2013-01-29 00:00:00,
2013-01-28 19:05:00,40.3,40.3,29.83,SSW,202,2.3,2.3,100,0.08,-RA,,0.25,0.0,WeatherDisplay:10.37,2013-01-29 00:05:00,
2013-01-28 19:10:00,40.5,40.5,29.83,SSW,202,1.1,0.0,100,0.08,-RA,,0.25,0.0,WeatherDisplay:10.37,2013-01-29 00:10:00,
2013-01-28 19:15:00,40.5,40.5,29.83,SSW,202,1.1,0.0,100,0.08,-RA,,0.25,0.0,WeatherDisplay:10.37,2013-01-29 00:15:00,
2013-01-28 19:20:00,40.6,40.6,29.83,SSW,202,3.5,3.5,100,0.08,-RA,,0.25,0.0,WeatherDisplay:10.37,2013-01-29 00:20:00,
2013-01-28 19:25:00,40.6,40.6,29.83,SW,225,3.1,3.1,100,0.04,-RA,,0.25,0.0,WeatherDisplay:10.37,2013-01-29 00:25:00,
2013-01-28 19:30:00,41.0,41.0,29.83,WSW,248,4.6,4.6,100,0.04,-RA,,0.25,0.0,WeatherDisplay:10.37,2013-01-29 00:30:00,
2013-01-28 19:35:00,41.2,41.2,29.83,WSW,248,3.6,3.6,100,0.04,-RA,,0.25,0.0,WeatherDisplay:10.37,2013-01-29 00:35:00,
2013-01-28 19:40:00,41.2,41.2,29.83,SW,225,3.8,3.8,100,0.04,-RA,,0.25,0.0,WeatherDisplay:10.37,2013-01-29 00:40:00,
2013-01-28 19:45:00,41.2,41.2,29.83,WSW,248,4.6,4.6,100,0.04,-RA,,0.25,0.0,WeatherDisplay:10.37,2013-01-29 00:45:00,
2013-01-28 19:50:00,41.4,41.4,29.83,WSW,248,3.5,3.5,100,0.04,-RA,,0.29,0.0,WeatherDisplay:10.37,2013-01-29 00:50:00,
2013-01-28 19:55:00,41.5,41.5,29.83,WSW,248,5.8,5.8,100,0.08,-RA,,0.29,0.0,WeatherDisplay:10.37,2013-01-29 00:55:00,
2013-01-28 20:00:00,41.5,41.5,29.83,WSW,248,3.6,3.6,100,0.04,-RA,,0.29,0.0,WeatherDisplay:10.37,2013-01-29 01:00:00,
2013-01-28 20:05:00,41.5,41.5,29.83,WSW,248,0.0,0.0,100,0.04,-RA,,0.29,0.0,WeatherDisplay:10.37,2013-01-29 01:05:00,
2013-01-28 20:10:00,41.5,41.5,29.83,WSW,248,0.0,0.0,100,0.04,-RA,,0.29,0.0,WeatherDisplay:10.37,2013-01-29 01:10:00,
2013-01-28 20:15:00,41.5,41.5,29.83,WSW,248,3.3,0.0,100,0.04,-RA,,0.29,0.0,WeatherDisplay:10.37,2013-01-29 01:15:00,
2013-01-28 20:20:00,41.7,41.7,29.83,WSW,248,4.6,4.6,100,0.04,-RA,,0.29,0.0,WeatherDisplay:10.37,2013-01-29 01:20:00,
2013-01-28 20:25:00,41.7,41.7,29.83,WSW,248,4.6,4.6,100,0.04,-RA,,0.29,0.0,WeatherDisplay:10.37,2013-01-29 01:25:00,
2013-01-28 20:30:00,41.7,41.7,29.83,WSW,248,4.9,4.9,100,0.04,-RA,,0.29,0.0,WeatherDisplay:10.37,2013-01-29 01:30:00,
2013-01-28 20:35:00,41.7,41.7,29.83,WSW,248,4.9,4.9,100,0.04,-RA,,0.29,0.0,WeatherDisplay:10.37,2013-01-29 01:35:00,
2013-01-28 20:40:00,41.7,41.7,29.85,West,270,5.8,5.8,100,0.04,-RA,,0.29,0.0,WeatherDisplay:10.37,2013-01-29 01:40:00,
2013-01-28 20:45:00,41.7,41.7,29.85,West,270,5.8,5.8,100,0.04,-RA,,0.29,0.0,WeatherDisplay:10.37,2013-01-29 01:45:00,
2013-01-28 20:50:00,41.9,41.9,29.85,West,270,8.1,8.1,100,0.04,-RA,,0.29,0.0,WeatherDisplay:10.37,2013-01-29 01:50:00,
2013-01-28 20:55:00,41.9,41.9,29.85,West,270,5.8,5.8,100,0.00,-RA,,0.29,0.0,WeatherDisplay:10.37,2013-01-29 01:55:00,
2013-01-28 21:00:00,41.7,41.7,29.85,West,270,6.7,6.7,100,0.00,-RA,,0.29,0.0,WeatherDisplay:10.37,2013-01-29 02:00:00,
2013-01-28 21:05:00,41.7,41.7,29.85,West,270,4.9,4.9,100,0.00,OVC,,0.29,0.0,WeatherDisplay:10.37,2013-01-29 02:05:00,
2013-01-28 21:10:00,41.7,41.7,29.85,West,270,5.9,5.9,100,0.00,OVC,,0.29,0.0,WeatherDisplay:10.37,2013-01-29 02:10:00,
2013-01-28 21:15:00,41.7,41.7,29.85,WNW,292,6.9,6.9,100,0.00,OVC,,0.29,0.0,WeatherDisplay:10.37,2013-01-29 02:15:00,
2013-01-28 21:20:00,41.5,41.5,29.85,WNW,292,5.8,5.8,100,0.00,OVC,,0.29,0.0,WeatherDisplay:10.37,2013-01-29 02:20:00,
2013-01-28 21:25:00,41.5,41.5,29.85,West,270,2.9,4.7,100,0.00,OVC,,0.29,0.0,WeatherDisplay:10.37,2013-01-29 02:25:00,
2013-01-28 21:31:00,41.5,41.5,29.85,WNW,292,3.5,3.5,100,0.04,RA,,0.33,0.0,WeatherDisplay:10.37,2013-01-29 02:31:00,
2013-01-28 21:36:00,41.5,41.5,29.85,WNW,292,3.8,3.8,100,0.04,RA,,0.33,0.0,WeatherDisplay:10.37,2013-01-29 02:36:00,
2013-01-28 21:41:00,41.4,41.4,29.85,WNW,292,0.0,0.0,100,0.04,OVC,,0.33,0.0,WeatherDisplay:10.37,2013-01-29 02:41:00,
2013-01-28 21:46:00,41.4,41.4,29.85,NNW,338,3.5,3.5,100,0.04,OVC,,0.33,0.0,WeatherDisplay:10.37,2013-01-29 02:46:00,
2013-01-28 21:51:00,40.6,40.6,29.85,NNW,338,4.6,4.6,100,0.04,OVC,,0.33,0.0,WeatherDisplay:10.37,2013-01-29 02:51:00,
2013-01-28 21:56:00,39.9,39.9,29.88,NNE,22,3.5,3.5,100,0.04,OVC,,0.33,0.0,WeatherDisplay:10.37,2013-01-29 02:56:00,
2013-01-28 22:01:00,39.4,39.4,29.88,NNW,338,4.7,4.7,100,0.04,OVC,,0.33,0.0,WeatherDisplay:10.37,2013-01-29 03:01:00,
2013-01-28 22:06:00,39.4,39.4,29.88,NNW,338,3.5,0.0,100,0.04,-RA,,0.33,0.0,WeatherDisplay:10.37,2013-01-29 03:06:00,
2013-01-28 22:11:00,39.2,39.2,29.88,NNW,338,4.9,4.9,100,0.04,-RA,,0.33,0.0,WeatherDisplay:10.37,2013-01-29 03:11:00,
2013-01-28 22:16:00,39.0,39.0,29.88,NNW,338,3.5,3.5,100,0.04,-RA,,0.33,0.0,WeatherDisplay:10.37,2013-01-29 03:16:00,
2013-01-28 22:21:00,38.8,38.8,29.88,NNW,338,2.4,2.4,100,0.04,-RA,,0.33,0.0,WeatherDisplay:10.37,2013-01-29 03:21:00,
2013-01-28 22:26:00,38.8,38.8,29.88,NNW,338,5.8,5.8,100,0.04,-RA,,0.33,0.0,WeatherDisplay:10.37,2013-01-29 03:26:00,
2013-01-28 22:31:00,38.7,38.7,29.88,NNW,338,3.5,3.5,100,0.00,-RA,,0.33,0.0,WeatherDisplay:10.37,2013-01-29 03:31:00,
2013-01-28 22:36:00,38.5,38.5,29.88,NNW,338,4.6,4.6,100,0.00,-RA,,0.33,0.0,WeatherDisplay:10.37,2013-01-29 03:36:00,
2013-01-28 22:41:00,38.5,38.5,29.88,WNW,292,3.5,3.5,100,0.00,-RA,,0.33,0.0,WeatherDisplay:10.37,2013-01-29 03:41:00,
2013-01-28 22:46:00,38.7,38.7,29.88,WNW,292,6.9,6.9,100,0.00,-RA,,0.33,0.0,WeatherDisplay:10.37,2013-01-29 03:46:00,
2013-01-28 22:51:00,38.7,38.7,29.88,WNW,292,4.7,4.7,100,0.00,-RA,,0.33,0.0,WeatherDisplay:10.37,2013-01-29 03:51:00,
2013-01-28 22:56:00,38.7,38.7,29.88,WNW,292,6.9,6.9,100,0.00,-RA,,0.33,0.0,WeatherDisplay:10.37,2013-01-29 03:56:00,
2013-01-28 23:01:00,38.7,38.7,29.88,West,270,6.9,6.9,100,0.00,-RA,,0.33,0.0,WeatherDisplay:10.37,2013-01-29 04:01:00,
2013-01-28 23:06:00,38.7,38.7,29.88,West,270,5.8,5.8,100,0.00,-RA,,0.33,0.0,WeatherDisplay:10.37,2013-01-29 04:06:00,
2013-01-28 23:11:00,38.7,38.7,29.88,WNW,292,4.6,4.6,100,0.00,-RA,,0.33,0.0,WeatherDisplay:10.37,2013-01-29 04:11:00,
2013-01-28 23:16:00,38.7,38.7,29.88,WNW,292,4.6,4.6,100,0.00,-RA,,0.33,0.0,WeatherDisplay:10.37,2013-01-29 04:16:00,
2013-01-28 23:21:00,38.7,38.7,29.88,WNW,292,6.9,6.9,100,0.00,-RA,,0.33,0.0,WeatherDisplay:10.37,2013-01-29 04:21:00,
2013-01-28 23:26:00,38.7,38.7,29.91,WSW,248,6.9,6.9,100,0.00,-RA,,0.33,0.0,WeatherDisplay:10.37,2013-01-29 04:26:00,
2013-01-28 23:31:00,38.7,38.7,29.91,WNW,292,8.1,8.1,100,0.00,-RA,,0.33,0.0,WeatherDisplay:10.37,2013-01-29 04:31:00,
2013-01-28 23:36:00,38.7,38.7,29.91,WNW,292,8.1,8.1,100,0.00,-RA,,0.33,0.0,WeatherDisplay:10.37,2013-01-29 04:36:00,
2013-01-28 23:41:00,38.7,38.7,29.91,WNW,292,11.5,11.5,100,0.00,-RA,,0.33,0.0,WeatherDisplay:10.37,2013-01-29 04:41:00,
2013-01-28 23:46:00,38.7,38.7,29.91,WNW,292,8.1,8.1,100,0.00,-RA,,0.33,0.0,WeatherDisplay:10.37,2013-01-29 04:46:00,
2013-01-28 23:51:00,38.7,38.7,29.91,WNW,292,8.1,8.1,100,0.00,-RA,,0.33,0.0,WeatherDisplay:10.37,2013-01-29 04:51:00,
2013-01-28 23:56:00,38.7,38.7,29.94,WNW,292,6.9,6.9,100,0.00,-RA,,0.33,0.0,WeatherDisplay:10.37,2013-01-29 04:56:00,